Cismont, Virginia
Current Conditions -  °F | °C
As of 1:53 PM on Thursday 23 Oct 2014 (Local Time) from KCHO Reporting Station
Clear Clear  
Wind Chill: 66°   Ceiling: Unl
Heat Index: 66°   Visibility: 10mi
Dew Point: 43°   Wind: 14mph
Humidity: 43%   Direction: 330°NNW
Pressure: 29.92"   Gusts: 24mph
Location:  38.0053°N, 78.3345°W
Report Text: KCHO 231753Z 33012G21KT 10SM CLR 19/06 A2992 RMK AO2 SLP128 T01890061 10189 20111 58014
Loading
Personal Weather Stations






























Interactive Weather Map
Tropical Storm Tracking
New forecast layout! Learn more

10-Day Weather Forecast

Advertisements
Track Severe Weather on mobile